GEC617 EDDP-KBOS
Flight info
| Callsign | GEC617 |
|---|---|
| Flight time | N/A |
| Altitude | 32000 |
| Route | ORTAG5Q ORTAG Q230 KUMER DCT TOLTA DCT ABAMI Z717 NEREL Z28 DIBIR DCT RAVLO Y70 OTBED DCT NISBI DCT DOPEK DCT ARTIX DCT MOGMO DCT MAMUL L60 PENIL UL70 BABRA M144 BAGSO DCT BEXET DCT DOGAL/M084F330 DCT 54N020W 53N030W 5130N04000W 50N050W DCT ELSIR/N0486F340 DCT TUSKY DCT EURRO OOSHN5 |
| Aircraft | B77L/H-SDE1E2E3FGHIJ2J3J4J5M1RWXY/LB1D1 |
Departure
| Time | N/A |
|---|---|
| Airport | Leipzig/Halle Airport (EDDP) |
Arrival
| Time | 2026-05-08 03:37 |
|---|---|
| Airport | Boston Logan International Airport (KBOS) |
| Time | Latitude | Longitude | Altitude | Speed | Heading |
|---|---|---|---|---|---|
| 2026-05-08 00:25 | 50.75149 | -45.76731 | 36241 ft | 438 kts | 255° |
| 2026-05-08 00:25 | 50.74413 | -45.81421 | 36247 ft | 440 kts | 255° |
| 2026-05-08 00:25 | 50.72931 | -45.90817 | 36239 ft | 438 kts | 256° |
| 2026-05-08 00:26 | 50.71453 | -46.00138 | 36233 ft | 439 kts | 255° |
| 2026-05-08 00:26 | 50.69962 | -46.09485 | 36238 ft | 440 kts | 255° |
| 2026-05-08 00:27 | 50.68468 | -46.18800 | 36233 ft | 436 kts | 255° |
| 2026-05-08 00:27 | 50.66978 | -46.28034 | 36234 ft | 439 kts | 255° |
| 2026-05-08 00:28 | 50.65472 | -46.37323 | 36233 ft | 438 kts | 255° |
| 2026-05-08 00:28 | 50.63924 | -46.46809 | 36229 ft | 435 kts | 255° |
| 2026-05-08 00:29 | 50.62406 | -46.56069 | 36220 ft | 437 kts | 255° |
| 2026-05-08 00:29 | 50.60842 | -46.65548 | 36233 ft | 436 kts | 254° |
| 2026-05-08 00:30 | 50.59321 | -46.74723 | 36234 ft | 436 kts | 254° |
| 2026-05-08 00:30 | 50.57737 | -46.84222 | 36228 ft | 435 kts | 254° |
| 2026-05-08 00:31 | 50.56197 | -46.93411 | 36225 ft | 432 kts | 254° |
| 2026-05-08 00:31 | 50.54629 | -47.02710 | 36243 ft | 433 kts | 254° |
| 2026-05-08 00:32 | 50.53088 | -47.11806 | 36196 ft | 433 kts | 254° |
| 2026-05-08 00:32 | 50.51493 | -47.21169 | 36205 ft | 431 kts | 253° |
| 2026-05-08 00:33 | 50.49948 | -47.30192 | 36218 ft | 431 kts | 253° |
| 2026-05-08 00:33 | 50.48358 | -47.39422 | 36220 ft | 432 kts | 254° |
| 2026-05-08 00:34 | 50.46762 | -47.48645 | 36221 ft | 430 kts | 253° |
| 2026-05-08 00:34 | 50.45168 | -47.57806 | 36224 ft | 433 kts | 254° |
| 2026-05-08 00:35 | 50.43521 | -47.67224 | 36231 ft | 432 kts | 253° |
| 2026-05-08 00:35 | 50.41876 | -47.76586 | 36238 ft | 433 kts | 253° |
| 2026-05-08 00:36 | 50.40205 | -47.86037 | 36202 ft | 432 kts | 253° |
| 2026-05-08 00:36 | 50.38563 | -47.95282 | 36196 ft | 431 kts | 253° |
| 2026-05-08 00:37 | 50.36879 | -48.04713 | 36195 ft | 433 kts | 253° |
| 2026-05-08 00:38 | 50.34334 | -48.18870 | 36189 ft | 431 kts | 253° |
| 2026-05-08 00:38 | 50.32662 | -48.28108 | 36180 ft | 433 kts | 253° |
| 2026-05-08 00:39 | 50.31010 | -48.37194 | 36166 ft | 432 kts | 253° |
| 2026-05-08 00:39 | 50.29298 | -48.46566 | 36154 ft | 434 kts | 253° |
| 2026-05-08 00:40 | 50.27586 | -48.55883 | 36157 ft | 431 kts | 253° |
| 2026-05-08 00:40 | 50.25878 | -48.65136 | 36143 ft | 436 kts | 253° |
| 2026-05-08 00:41 | 50.24123 | -48.74596 | 36143 ft | 436 kts | 253° |
| 2026-05-08 00:41 | 50.22368 | -48.84003 | 36133 ft | 435 kts | 253° |
| 2026-05-08 00:42 | 50.20610 | -48.93383 | 36134 ft | 434 kts | 253° |
| 2026-05-08 00:42 | 50.18830 | -49.02832 | 36124 ft | 435 kts | 253° |
| 2026-05-08 00:43 | 50.17066 | -49.12148 | 36120 ft | 431 kts | 253° |
| 2026-05-08 00:43 | 50.15296 | -49.21451 | 36120 ft | 433 kts | 253° |
| 2026-05-08 00:44 | 50.13582 | -49.30413 | 36127 ft | 432 kts | 253° |
| 2026-05-08 00:44 | 50.11813 | -49.39620 | 36108 ft | 433 kts | 253° |
| 2026-05-08 00:45 | 50.10053 | -49.48739 | 36104 ft | 434 kts | 253° |
| 2026-05-08 00:45 | 50.08278 | -49.57890 | 36102 ft | 431 kts | 253° |
| 2026-05-08 00:46 | 50.06559 | -49.66712 | 36109 ft | 434 kts | 252° |
| 2026-05-08 00:46 | 50.04729 | -49.76054 | 36114 ft | 432 kts | 252° |
| 2026-05-08 00:47 | 50.02915 | -49.85277 | 36110 ft | 432 kts | 252° |
| 2026-05-08 00:47 | 50.01116 | -49.94377 | 36076 ft | 434 kts | 252° |
| 2026-05-08 00:48 | 49.99184 | -50.03190 | 36090 ft | 429 kts | 249° |
| 2026-05-08 00:48 | 49.97024 | -50.12309 | 36232 ft | 434 kts | 249° |
| 2026-05-08 00:48 | 49.95950 | -50.16811 | 35843 ft | 433 kts | 249° |
| 2026-05-08 00:49 | 49.94879 | -50.21277 | 36169 ft | 428 kts | 250° |
| 2026-05-08 00:49 | 49.92738 | -50.30163 | 36073 ft | 430 kts | 249° |
| 2026-05-08 00:50 | 49.90588 | -50.39037 | 36053 ft | 430 kts | 249° |
| 2026-05-08 00:50 | 49.88384 | -50.48086 | 36062 ft | 428 kts | 249° |
| 2026-05-08 00:51 | 49.86254 | -50.56795 | 36044 ft | 425 kts | 249° |
| 2026-05-08 00:51 | 49.84117 | -50.65494 | 36024 ft | 426 kts | 248° |
| 2026-05-08 00:52 | 49.82033 | -50.73947 | 36030 ft | 422 kts | 249° |
| 2026-05-08 00:52 | 49.79916 | -50.82499 | 36024 ft | 417 kts | 249° |
| 2026-05-08 00:53 | 49.77876 | -50.90710 | 36035 ft | 425 kts | 248° |
| 2026-05-08 00:53 | 49.75820 | -50.98957 | 36033 ft | 414 kts | 248° |
| 2026-05-08 00:54 | 49.73831 | -51.06902 | 36025 ft | 418 kts | 248° |
| 2026-05-08 00:54 | 49.71713 | -51.15334 | 36023 ft | 417 kts | 248° |
| 2026-05-08 00:55 | 49.69626 | -51.23612 | 36019 ft | 415 kts | 248° |
| 2026-05-08 00:55 | 49.67484 | -51.32075 | 36003 ft | 415 kts | 249° |
| 2026-05-08 00:56 | 49.65412 | -51.40231 | 36019 ft | 415 kts | 248° |
| 2026-05-08 00:56 | 49.64389 | -51.44246 | 35757 ft | 418 kts | 248° |
| 2026-05-08 00:56 | 49.63369 | -51.48243 | 36233 ft | 418 kts | 249° |
| 2026-05-08 00:56 | 49.62340 | -51.52271 | 35844 ft | 417 kts | 248° |
| 2026-05-08 00:57 | 49.61309 | -51.56296 | 36204 ft | 414 kts | 248° |
| 2026-05-08 00:57 | 49.60233 | -51.60493 | 36003 ft | 417 kts | 248° |
| 2026-05-08 00:57 | 49.59237 | -51.64365 | 35982 ft | 411 kts | 249° |
| 2026-05-08 00:58 | 49.57150 | -51.72467 | 36074 ft | 410 kts | 248° |
| 2026-05-08 00:58 | 49.54985 | -51.80839 | 36006 ft | 409 kts | 248° |
| 2026-05-08 00:59 | 49.52933 | -51.88746 | 35751 ft | 410 kts | 248° |
| 2026-05-08 00:59 | 49.51881 | -51.92790 | 36064 ft | 412 kts | 248° |
| 2026-05-08 00:59 | 49.50877 | -51.96640 | 35976 ft | 409 kts | 249° |
| 2026-05-08 01:00 | 49.48850 | -52.04094 | 35978 ft | 407 kts | 246° |
| 2026-05-08 01:00 | 49.47715 | -52.07918 | 35749 ft | 409 kts | 245° |
| 2026-05-08 01:00 | 49.46576 | -52.11749 | 35917 ft | 407 kts | 246° |
| 2026-05-08 01:01 | 49.44320 | -52.19352 | 35918 ft | 408 kts | 247° |
| 2026-05-08 01:01 | 49.41959 | -52.27303 | 36250 ft | 408 kts | 247° |
| 2026-05-08 01:01 | 49.40802 | -52.31201 | 35735 ft | 409 kts | 246° |
| 2026-05-08 01:02 | 49.39661 | -52.35036 | 36095 ft | 405 kts | 247° |
| 2026-05-08 01:02 | 49.38522 | -52.38861 | 35707 ft | 402 kts | 246° |
| 2026-05-08 01:02 | 49.37360 | -52.42754 | 35894 ft | 401 kts | 247° |
| 2026-05-08 01:02 | 49.36268 | -52.46413 | 36236 ft | 404 kts | 247° |
| 2026-05-08 01:03 | 49.35173 | -52.50074 | 35900 ft | 401 kts | 247° |
| 2026-05-08 01:03 | 49.32917 | -52.57603 | 35919 ft | 402 kts | 246° |
| 2026-05-08 01:04 | 49.30713 | -52.64935 | 35933 ft | 401 kts | 247° |
| 2026-05-08 01:04 | 49.29547 | -52.68807 | 36236 ft | 403 kts | 247° |
| 2026-05-08 01:04 | 49.28364 | -52.72726 | 35870 ft | 399 kts | 246° |
| 2026-05-08 01:05 | 49.26140 | -52.80080 | 35922 ft | 400 kts | 246° |
| 2026-05-08 01:05 | 49.23880 | -52.87530 | 35913 ft | 401 kts | 246° |
| 2026-05-08 01:06 | 49.21626 | -52.94938 | 35904 ft | 397 kts | 246° |
| 2026-05-08 01:06 | 49.19384 | -53.02286 | 35894 ft | 396 kts | 245° |
| 2026-05-08 01:07 | 49.17302 | -53.09093 | 35893 ft | 394 kts | 246° |
| 2026-05-08 01:07 | 49.15157 | -53.16081 | 35880 ft | 394 kts | 246° |
| 2026-05-08 01:08 | 49.12949 | -53.23256 | 35879 ft | 395 kts | 245° |
| 2026-05-08 01:08 | 49.10793 | -53.30240 | 35884 ft | 393 kts | 246° |
| 2026-05-08 01:09 | 49.08546 | -53.37497 | 35881 ft | 394 kts | 246° |
| 2026-05-08 01:09 | 49.06385 | -53.44462 | 35858 ft | 391 kts | 245° |
| 2026-05-08 01:10 | 49.04126 | -53.51716 | 36168 ft | 393 kts | 245° |
| 2026-05-08 01:10 | 49.03028 | -53.55236 | 35698 ft | 395 kts | 246° |
| 2026-05-08 01:10 | 49.01936 | -53.58730 | 35842 ft | 387 kts | 246° |
| 2026-05-08 01:11 | 48.99641 | -53.66061 | 35853 ft | 394 kts | 244° |
| 2026-05-08 01:11 | 48.97456 | -53.73019 | 35861 ft | 391 kts | 245° |
| 2026-05-08 01:12 | 48.95187 | -53.80224 | 35853 ft | 390 kts | 245° |
| 2026-05-08 01:12 | 48.93007 | -53.87128 | 35842 ft | 392 kts | 244° |
| 2026-05-08 01:13 | 48.90732 | -53.94311 | 35841 ft | 389 kts | 244° |
| 2026-05-08 01:13 | 48.88458 | -54.01470 | 35840 ft | 388 kts | 245° |
| 2026-05-08 01:14 | 48.86181 | -54.08620 | 35843 ft | 390 kts | 244° |
| 2026-05-08 01:14 | 48.83984 | -54.15499 | 35846 ft | 389 kts | 245° |
| 2026-05-08 01:15 | 48.81698 | -54.22635 | 35834 ft | 389 kts | 245° |
| 2026-05-08 01:15 | 48.79508 | -54.29452 | 35835 ft | 391 kts | 245° |
| 2026-05-08 01:16 | 48.77246 | -54.36477 | 35822 ft | 389 kts | 244° |
| 2026-05-08 01:16 | 48.74967 | -54.43534 | 35830 ft | 390 kts | 244° |
| 2026-05-08 01:17 | 48.72687 | -54.50571 | 35828 ft | 389 kts | 244° |
| 2026-05-08 01:17 | 48.70425 | -54.57539 | 35841 ft | 388 kts | 244° |
| 2026-05-08 01:18 | 48.68124 | -54.64604 | 35806 ft | 389 kts | 244° |
| 2026-05-08 01:18 | 48.65876 | -54.71486 | 35831 ft | 391 kts | 243° |
| 2026-05-08 01:19 | 48.63648 | -54.78292 | 35810 ft | 386 kts | 244° |
| 2026-05-08 01:19 | 48.61395 | -54.85152 | 35798 ft | 388 kts | 243° |
| 2026-05-08 01:20 | 48.59182 | -54.91875 | 35789 ft | 386 kts | 243° |
| 2026-05-08 01:20 | 48.56901 | -54.98785 | 35795 ft | 389 kts | 244° |
| 2026-05-08 01:21 | 48.54701 | -55.05432 | 35794 ft | 384 kts | 243° |
| 2026-05-08 01:21 | 48.52431 | -55.12272 | 35778 ft | 386 kts | 243° |
| 2026-05-08 01:22 | 48.50204 | -55.18964 | 35811 ft | 386 kts | 243° |
| 2026-05-08 01:22 | 48.47908 | -55.25845 | 35792 ft | 383 kts | 243° |
| 2026-05-08 01:23 | 48.45696 | -55.32459 | 35776 ft | 387 kts | 243° |
| 2026-05-08 01:23 | 48.43454 | -55.39144 | 35775 ft | 382 kts | 243° |
| 2026-05-08 01:24 | 48.41234 | -55.45749 | 35789 ft | 384 kts | 243° |
| 2026-05-08 01:24 | 48.38961 | -55.52491 | 35770 ft | 383 kts | 243° |
| 2026-05-08 01:25 | 48.36686 | -55.59219 | 35765 ft | 381 kts | 243° |
| 2026-05-08 01:25 | 48.34244 | -55.66423 | 35879 ft | 384 kts | 243° |
| 2026-05-08 01:25 | 48.33111 | -55.69761 | 35534 ft | 380 kts | 242° |
| 2026-05-08 01:26 | 48.32020 | -55.72970 | 35625 ft | 379 kts | 243° |
| 2026-05-08 01:26 | 48.30904 | -55.76249 | 36055 ft | 383 kts | 243° |
| 2026-05-08 01:26 | 48.29735 | -55.79677 | 35923 ft | 383 kts | 242° |
| 2026-05-08 01:27 | 48.27537 | -55.86110 | 36012 ft | 377 kts | 243° |
| 2026-05-08 01:27 | 48.26436 | -55.89330 | 35848 ft | 384 kts | 243° |
| 2026-05-08 01:27 | 48.25346 | -55.92512 | 35793 ft | 379 kts | 242° |
| 2026-05-08 01:28 | 48.23091 | -55.99080 | 35781 ft | 379 kts | 242° |
| 2026-05-08 01:28 | 48.20762 | -56.05847 | 35762 ft | 381 kts | 242° |
| 2026-05-08 01:29 | 48.18412 | -56.12657 | 35769 ft | 379 kts | 242° |
| 2026-05-08 01:29 | 48.16008 | -56.19606 | 35750 ft | 380 kts | 242° |
| 2026-05-08 01:30 | 48.13504 | -56.26822 | 35754 ft | 379 kts | 243° |
| 2026-05-08 01:30 | 48.11079 | -56.33792 | 35752 ft | 378 kts | 242° |
| 2026-05-08 01:31 | 48.08616 | -56.40853 | 35760 ft | 381 kts | 243° |
| 2026-05-08 01:31 | 48.06159 | -56.47879 | 35751 ft | 374 kts | 242° |
| 2026-05-08 01:32 | 48.03681 | -56.54944 | 35738 ft | 378 kts | 242° |
| 2026-05-08 01:32 | 48.01215 | -56.61956 | 35744 ft | 377 kts | 242° |
| 2026-05-08 01:33 | 47.98709 | -56.69064 | 35756 ft | 378 kts | 241° |
| 2026-05-08 01:33 | 47.96304 | -56.75864 | 35744 ft | 373 kts | 242° |
| 2026-05-08 01:34 | 47.93951 | -56.82505 | 35754 ft | 377 kts | 241° |
| 2026-05-08 01:34 | 47.91636 | -56.89017 | 35737 ft | 376 kts | 242° |
| 2026-05-08 01:35 | 47.89233 | -56.95761 | 35742 ft | 374 kts | 242° |
| 2026-05-08 01:35 | 47.86923 | -57.02230 | 35732 ft | 374 kts | 242° |
| 2026-05-08 01:36 | 47.84540 | -57.08887 | 35741 ft | 375 kts | 241° |
| 2026-05-08 01:36 | 47.82183 | -57.15452 | 35735 ft | 371 kts | 242° |
| 2026-05-08 01:37 | 47.79812 | -57.22042 | 35737 ft | 375 kts | 241° |
| 2026-05-08 01:37 | 47.77468 | -57.28540 | 35698 ft | 366 kts | 240° |
| 2026-05-08 01:38 | 47.75131 | -57.35002 | 35728 ft | 372 kts | 241° |
| 2026-05-08 01:38 | 47.72807 | -57.41412 | 35727 ft | 367 kts | 241° |
| 2026-05-08 01:39 | 47.70474 | -57.47832 | 35712 ft | 370 kts | 240° |
| 2026-05-08 01:39 | 47.68169 | -57.54160 | 35719 ft | 369 kts | 241° |
| 2026-05-08 01:40 | 47.65809 | -57.60623 | 35711 ft | 362 kts | 241° |
| 2026-05-08 01:40 | 47.63501 | -57.66929 | 35715 ft | 366 kts | 240° |
| 2026-05-08 01:41 | 47.61097 | -57.73479 | 35684 ft | 364 kts | 241° |
| 2026-05-08 01:41 | 47.58748 | -57.79865 | 35732 ft | 368 kts | 240° |
| 2026-05-08 01:42 | 47.56406 | -57.86220 | 35732 ft | 361 kts | 240° |
| 2026-05-08 01:42 | 47.54176 | -57.92252 | 35733 ft | 362 kts | 241° |
| 2026-05-08 01:43 | 47.51844 | -57.98549 | 35731 ft | 360 kts | 240° |
| 2026-05-08 01:43 | 47.49479 | -58.04917 | 35720 ft | 361 kts | 240° |
| 2026-05-08 01:44 | 47.47079 | -58.11366 | 35715 ft | 363 kts | 239° |
| 2026-05-08 01:44 | 47.44705 | -58.17728 | 35731 ft | 361 kts | 239° |
| 2026-05-08 01:45 | 47.42312 | -58.24126 | 35734 ft | 359 kts | 239° |
| 2026-05-08 01:45 | 47.39937 | -58.30462 | 35723 ft | 357 kts | 240° |
| 2026-05-08 01:46 | 47.37550 | -58.36816 | 35693 ft | 359 kts | 239° |
| 2026-05-08 01:46 | 47.35162 | -58.43155 | 35691 ft | 363 kts | 239° |
| 2026-05-08 01:47 | 47.32782 | -58.49459 | 35711 ft | 358 kts | 239° |
| 2026-05-08 01:47 | 47.30381 | -58.55800 | 35699 ft | 362 kts | 239° |
| 2026-05-08 01:48 | 47.26732 | -58.65416 | 35699 ft | 358 kts | 240° |
| 2026-05-08 01:48 | 47.24351 | -58.71670 | 35700 ft | 359 kts | 239° |
| 2026-05-08 01:49 | 47.21909 | -58.78067 | 35704 ft | 361 kts | 239° |
| 2026-05-08 01:49 | 47.19508 | -58.84347 | 35690 ft | 357 kts | 240° |
| 2026-05-08 01:50 | 47.17056 | -58.90741 | 35658 ft | 360 kts | 238° |
| 2026-05-08 01:50 | 47.14760 | -58.96716 | 35678 ft | 358 kts | 238° |
| 2026-05-08 01:51 | 47.12360 | -59.02948 | 35690 ft | 356 kts | 238° |
| 2026-05-08 01:51 | 47.10051 | -59.08928 | 35695 ft | 360 kts | 238° |
| 2026-05-08 01:52 | 47.07625 | -59.15200 | 35683 ft | 356 kts | 239° |
| 2026-05-08 01:52 | 47.05253 | -59.21317 | 35688 ft | 357 kts | 238° |
| 2026-05-08 01:53 | 47.02763 | -59.27724 | 35697 ft | 353 kts | 239° |
| 2026-05-08 01:53 | 47.00384 | -59.33828 | 35714 ft | 356 kts | 239° |
| 2026-05-08 01:54 | 46.97935 | -59.40101 | 35686 ft | 353 kts | 237° |
| 2026-05-08 01:54 | 46.95554 | -59.46184 | 35672 ft | 351 kts | 239° |
| 2026-05-08 01:55 | 46.93131 | -59.52362 | 35692 ft | 351 kts | 237° |
| 2026-05-08 01:55 | 46.90681 | -59.58591 | 35673 ft | 351 kts | 238° |
| 2026-05-08 01:56 | 46.88225 | -59.64826 | 35687 ft | 350 kts | 237° |
| 2026-05-08 01:56 | 46.85784 | -59.71008 | 35721 ft | 351 kts | 237° |
| 2026-05-08 01:57 | 46.83303 | -59.77273 | 35700 ft | 353 kts | 237° |
| 2026-05-08 01:57 | 46.80851 | -59.83455 | 35704 ft | 350 kts | 237° |
| 2026-05-08 01:58 | 46.78389 | -59.89646 | 35687 ft | 348 kts | 237° |
| 2026-05-08 01:58 | 46.75938 | -59.95793 | 35690 ft | 349 kts | 236° |
| 2026-05-08 01:59 | 46.73440 | -60.02047 | 35697 ft | 347 kts | 238° |
| 2026-05-08 01:59 | 46.70999 | -60.08143 | 35700 ft | 348 kts | 238° |
| 2026-05-08 02:00 | 46.68516 | -60.14331 | 35697 ft | 351 kts | 238° |
| 2026-05-08 02:00 | 46.66050 | -60.20462 | 35695 ft | 348 kts | 237° |
| 2026-05-08 02:01 | 46.63569 | -60.26617 | 35976 ft | 351 kts | 237° |
| 2026-05-08 02:01 | 46.62335 | -60.29673 | 35747 ft | 351 kts | 237° |
| 2026-05-08 02:01 | 46.61112 | -60.32700 | 35453 ft | 347 kts | 236° |
| 2026-05-08 02:02 | 46.59862 | -60.35788 | 35964 ft | 350 kts | 236° |
| 2026-05-08 02:02 | 46.58616 | -60.38862 | 35504 ft | 353 kts | 237° |
| 2026-05-08 02:02 | 46.56143 | -60.44959 | 35694 ft | 350 kts | 237° |
| 2026-05-08 02:03 | 46.53659 | -60.51066 | 35650 ft | 350 kts | 236° |
| 2026-05-08 02:03 | 46.51177 | -60.57154 | 35668 ft | 354 kts | 236° |
| 2026-05-08 02:04 | 46.48670 | -60.63294 | 35657 ft | 348 kts | 236° |
| 2026-05-08 02:04 | 46.46158 | -60.69426 | 35536 ft | 355 kts | 235° |
| 2026-05-08 02:05 | 46.44910 | -60.72472 | 35669 ft | 348 kts | 236° |
| 2026-05-08 02:05 | 46.43701 | -60.75416 | 35538 ft | 356 kts | 236° |
| 2026-05-08 02:05 | 46.41197 | -60.81504 | 35654 ft | 349 kts | 236° |
| 2026-05-08 02:06 | 46.38685 | -60.87600 | 35654 ft | 356 kts | 236° |
| 2026-05-08 02:06 | 46.36173 | -60.93680 | 35685 ft | 355 kts | 236° |
| 2026-05-08 02:07 | 46.33638 | -60.99803 | 35673 ft | 355 kts | 236° |
| 2026-05-08 02:07 | 46.31120 | -61.05872 | 35665 ft | 352 kts | 237° |
| 2026-05-08 02:08 | 46.28585 | -61.11970 | 35683 ft | 350 kts | 236° |
| 2026-05-08 02:08 | 46.26066 | -61.18016 | 35675 ft | 352 kts | 235° |
| 2026-05-08 02:09 | 46.23603 | -61.23914 | 35691 ft | 351 kts | 236° |
| 2026-05-08 02:09 | 46.21096 | -61.29906 | 35685 ft | 351 kts | 236° |
| 2026-05-08 02:10 | 46.18568 | -61.35931 | 35671 ft | 354 kts | 236° |
| 2026-05-08 02:10 | 46.16040 | -61.41949 | 35669 ft | 349 kts | 236° |
| 2026-05-08 02:11 | 46.13488 | -61.48005 | 35653 ft | 354 kts | 234° |
| 2026-05-08 02:11 | 46.10936 | -61.54050 | 35661 ft | 351 kts | 236° |
| 2026-05-08 02:12 | 46.08403 | -61.60036 | 35660 ft | 351 kts | 235° |
| 2026-05-08 02:12 | 46.05846 | -61.66065 | 35671 ft | 354 kts | 234° |
| 2026-05-08 02:13 | 46.03287 | -61.72091 | 35687 ft | 352 kts | 234° |
| 2026-05-08 02:13 | 46.00734 | -61.78086 | 35685 ft | 350 kts | 234° |
| 2026-05-08 02:14 | 45.98181 | -61.84069 | 35672 ft | 350 kts | 234° |
| 2026-05-08 02:14 | 45.95611 | -61.90078 | 35667 ft | 350 kts | 233° |
| 2026-05-08 02:15 | 45.93073 | -61.96002 | 35662 ft | 351 kts | 235° |
| 2026-05-08 02:15 | 45.90488 | -62.02016 | 35660 ft | 354 kts | 234° |
| 2026-05-08 02:16 | 45.87887 | -62.08063 | 35703 ft | 351 kts | 234° |
| 2026-05-08 02:16 | 45.85305 | -62.14050 | 35710 ft | 351 kts | 234° |
| 2026-05-08 02:17 | 45.82667 | -62.20148 | 35700 ft | 357 kts | 233° |
| 2026-05-08 02:17 | 45.80088 | -62.26106 | 35691 ft | 351 kts | 233° |
| 2026-05-08 02:18 | 45.77468 | -62.32136 | 35708 ft | 355 kts | 233° |
| 2026-05-08 02:18 | 45.74834 | -62.38194 | 35702 ft | 354 kts | 233° |
| 2026-05-08 02:19 | 45.72206 | -62.44221 | 35706 ft | 354 kts | 234° |
| 2026-05-08 02:19 | 45.69573 | -62.50246 | 35707 ft | 357 kts | 233° |
| 2026-05-08 02:20 | 45.66923 | -62.56298 | 35688 ft | 355 kts | 234° |
| 2026-05-08 02:20 | 45.64283 | -62.62315 | 35690 ft | 356 kts | 234° |
| 2026-05-08 02:21 | 45.61619 | -62.68371 | 35713 ft | 358 kts | 233° |
| 2026-05-08 02:21 | 45.58949 | -62.74430 | 35712 ft | 358 kts | 233° |
| 2026-05-08 02:22 | 45.56272 | -62.80492 | 35713 ft | 361 kts | 232° |
| 2026-05-08 02:22 | 45.53600 | -62.86530 | 35705 ft | 355 kts | 233° |
| 2026-05-08 02:23 | 45.50893 | -62.92630 | 35711 ft | 360 kts | 233° |
| 2026-05-08 02:23 | 45.48230 | -62.98622 | 35697 ft | 359 kts | 232° |
| 2026-05-08 02:24 | 45.45543 | -63.04654 | 35704 ft | 359 kts | 232° |
| 2026-05-08 02:24 | 45.42873 | -63.10636 | 35703 ft | 358 kts | 232° |
| 2026-05-08 02:25 | 45.40163 | -63.16690 | 35697 ft | 364 kts | 232° |
| 2026-05-08 02:25 | 45.37470 | -63.22703 | 35689 ft | 358 kts | 232° |
| 2026-05-08 02:26 | 45.34748 | -63.28755 | 35667 ft | 362 kts | 233° |
| 2026-05-08 02:26 | 45.32047 | -63.34758 | 35686 ft | 362 kts | 232° |
| 2026-05-08 02:27 | 45.29316 | -63.40809 | 35687 ft | 365 kts | 232° |
| 2026-05-08 02:27 | 45.26592 | -63.46836 | 35696 ft | 362 kts | 232° |
| 2026-05-08 02:28 | 45.23843 | -63.52902 | 35706 ft | 361 kts | 232° |
| 2026-05-08 02:28 | 45.21146 | -63.58844 | 35700 ft | 361 kts | 233° |
| 2026-05-08 02:29 | 45.18381 | -63.64917 | 35685 ft | 363 kts | 233° |
| 2026-05-08 02:29 | 45.15639 | -63.70934 | 35715 ft | 360 kts | 231° |
| 2026-05-08 02:30 | 45.12878 | -63.76975 | 35718 ft | 362 kts | 233° |
| 2026-05-08 02:30 | 45.10135 | -63.82963 | 35708 ft | 361 kts | 232° |
| 2026-05-08 02:31 | 45.07413 | -63.88897 | 35690 ft | 358 kts | 232° |
| 2026-05-08 02:31 | 45.04683 | -63.94830 | 35725 ft | 362 kts | 232° |
| 2026-05-08 02:32 | 45.01883 | -64.00907 | 35711 ft | 364 kts | 232° |
| 2026-05-08 02:32 | 44.99142 | -64.06842 | 35733 ft | 364 kts | 231° |
| 2026-05-08 02:33 | 44.96369 | -64.12836 | 35694 ft | 367 kts | 231° |
| 2026-05-08 02:33 | 44.93573 | -64.18866 | 35705 ft | 363 kts | 232° |
| 2026-05-08 02:34 | 44.90783 | -64.24868 | 35694 ft | 367 kts | 232° |
| 2026-05-08 02:34 | 44.87976 | -64.30897 | 35710 ft | 366 kts | 231° |
| 2026-05-08 02:35 | 44.85210 | -64.36824 | 35720 ft | 365 kts | 232° |
| 2026-05-08 02:35 | 44.82417 | -64.42796 | 35712 ft | 369 kts | 232° |
| 2026-05-08 02:36 | 44.79601 | -64.48806 | 35698 ft | 368 kts | 232° |
| 2026-05-08 02:36 | 44.76775 | -64.54823 | 35721 ft | 372 kts | 231° |
| 2026-05-08 02:37 | 44.73922 | -64.60888 | 35720 ft | 372 kts | 232° |
| 2026-05-08 02:37 | 44.71068 | -64.66941 | 35729 ft | 368 kts | 232° |
| 2026-05-08 02:38 | 44.68257 | -64.72886 | 35723 ft | 373 kts | 232° |
| 2026-05-08 02:38 | 44.65418 | -64.78883 | 35705 ft | 373 kts | 231° |
| 2026-05-08 02:39 | 44.62570 | -64.84887 | 35731 ft | 371 kts | 231° |
| 2026-05-08 02:39 | 44.59733 | -64.90853 | 35728 ft | 370 kts | 231° |
| 2026-05-08 02:40 | 44.56891 | -64.96816 | 35731 ft | 371 kts | 232° |
| 2026-05-08 02:40 | 44.54015 | -65.02840 | 35733 ft | 369 kts | 231° |
| 2026-05-08 02:41 | 44.51148 | -65.08830 | 35735 ft | 373 kts | 231° |
| 2026-05-08 02:41 | 44.48248 | -65.14877 | 35744 ft | 376 kts | 232° |
| 2026-05-08 02:42 | 44.45352 | -65.20905 | 35731 ft | 372 kts | 232° |
| 2026-05-08 02:42 | 44.42459 | -65.26913 | 35717 ft | 376 kts | 233° |
| 2026-05-08 02:43 | 44.39561 | -65.32920 | 35727 ft | 376 kts | 232° |
| 2026-05-08 02:43 | 44.36628 | -65.38988 | 35747 ft | 376 kts | 232° |
| 2026-05-08 02:44 | 44.33700 | -65.45030 | 35735 ft | 377 kts | 232° |
| 2026-05-08 02:44 | 44.30774 | -65.51057 | 35721 ft | 376 kts | 232° |
| 2026-05-08 02:45 | 44.27814 | -65.57140 | 35707 ft | 381 kts | 233° |
| 2026-05-08 02:45 | 44.24878 | -65.63163 | 35728 ft | 380 kts | 232° |
| 2026-05-08 02:46 | 44.21898 | -65.69263 | 35739 ft | 378 kts | 232° |
| 2026-05-08 02:46 | 44.18962 | -65.75257 | 35732 ft | 382 kts | 232° |
| 2026-05-08 02:47 | 44.15973 | -65.81352 | 35731 ft | 379 kts | 232° |
| 2026-05-08 02:47 | 44.13018 | -65.87361 | 35724 ft | 380 kts | 232° |
| 2026-05-08 02:48 | 44.10028 | -65.93430 | 35733 ft | 383 kts | 232° |
| 2026-05-08 02:48 | 44.07042 | -65.99477 | 35754 ft | 381 kts | 233° |
| 2026-05-08 02:49 | 44.04165 | -66.05295 | 35716 ft | 382 kts | 233° |
| 2026-05-08 02:49 | 44.01087 | -66.11503 | 35768 ft | 382 kts | 234° |
| 2026-05-08 02:50 | 43.98042 | -66.17633 | 35789 ft | 384 kts | 234° |
| 2026-05-08 02:50 | 43.95024 | -66.23698 | 35778 ft | 380 kts | 233° |
| 2026-05-08 02:51 | 43.91946 | -66.29867 | 35690 ft | 383 kts | 233° |
| 2026-05-08 02:51 | 43.90425 | -66.32910 | 35808 ft | 381 kts | 234° |
| 2026-05-08 02:51 | 43.88874 | -66.36011 | 35713 ft | 385 kts | 234° |
| 2026-05-08 02:52 | 43.85795 | -66.42157 | 35780 ft | 387 kts | 234° |
| 2026-05-08 02:52 | 43.82760 | -66.48204 | 35762 ft | 384 kts | 234° |
| 2026-05-08 02:53 | 43.79894 | -66.53902 | 35744 ft | 385 kts | 233° |
| 2026-05-08 02:53 | 43.76987 | -66.59669 | 35719 ft | 386 kts | 234° |
| 2026-05-08 02:54 | 43.73844 | -66.65892 | 35798 ft | 391 kts | 233° |
| 2026-05-08 02:54 | 43.70741 | -66.72024 | 35804 ft | 389 kts | 233° |
| 2026-05-08 02:55 | 43.66051 | -66.81265 | 35720 ft | 389 kts | 233° |
| 2026-05-08 02:56 | 43.62870 | -66.87518 | 35740 ft | 388 kts | 233° |
| 2026-05-08 02:56 | 43.59767 | -66.93605 | 35703 ft | 391 kts | 234° |
| 2026-05-08 02:57 | 43.56556 | -66.99889 | 35813 ft | 393 kts | 234° |
| 2026-05-08 02:57 | 43.54121 | -67.06542 | 35741 ft | 394 kts | 248° |
| 2026-05-08 02:58 | 43.52413 | -67.13652 | 35800 ft | 396 kts | 248° |
| 2026-05-08 02:58 | 43.50568 | -67.20758 | 35748 ft | 392 kts | 246° |
| 2026-05-08 02:59 | 43.48657 | -67.27797 | 35753 ft | 397 kts | 246° |
| 2026-05-08 02:59 | 43.46706 | -67.34837 | 35749 ft | 391 kts | 246° |
| 2026-05-08 03:00 | 43.44692 | -67.42012 | 35765 ft | 394 kts | 246° |
| 2026-05-08 03:00 | 43.42671 | -67.49166 | 35761 ft | 396 kts | 246° |
| 2026-05-08 03:01 | 43.40660 | -67.56252 | 35749 ft | 393 kts | 246° |
| 2026-05-08 03:01 | 43.38649 | -67.63310 | 35744 ft | 394 kts | 246° |
| 2026-05-08 03:02 | 43.36665 | -67.70250 | 35795 ft | 394 kts | 246° |
| 2026-05-08 03:02 | 43.34630 | -67.77351 | 35799 ft | 393 kts | 246° |
| 2026-05-08 03:03 | 43.32617 | -67.84352 | 35775 ft | 391 kts | 246° |
| 2026-05-08 03:03 | 43.30567 | -67.91460 | 35766 ft | 390 kts | 246° |
| 2026-05-08 03:04 | 43.28545 | -67.98451 | 35747 ft | 394 kts | 246° |
| 2026-05-08 03:04 | 43.26514 | -68.05457 | 35770 ft | 392 kts | 246° |
| 2026-05-08 03:05 | 43.24483 | -68.12444 | 35764 ft | 393 kts | 246° |
| 2026-05-08 03:05 | 43.22457 | -68.19391 | 35770 ft | 393 kts | 246° |
| 2026-05-08 03:06 | 43.20435 | -68.26308 | 35788 ft | 395 kts | 246° |
| 2026-05-08 03:06 | 43.18376 | -68.33334 | 35779 ft | 391 kts | 246° |
| 2026-05-08 03:07 | 43.16334 | -68.40276 | 35766 ft | 392 kts | 246° |
| 2026-05-08 03:07 | 43.14262 | -68.47305 | 35778 ft | 395 kts | 246° |
| 2026-05-08 03:08 | 43.12219 | -68.54219 | 35789 ft | 395 kts | 246° |
| 2026-05-08 03:08 | 43.10152 | -68.61191 | 35766 ft | 394 kts | 246° |
| 2026-05-08 03:09 | 43.08054 | -68.68251 | 35793 ft | 394 kts | 246° |
| 2026-05-08 03:09 | 43.05979 | -68.75215 | 35783 ft | 396 kts | 246° |
| 2026-05-08 03:10 | 43.03851 | -68.82337 | 36047 ft | 396 kts | 246° |
| 2026-05-08 03:10 | 43.02794 | -68.85865 | 35603 ft | 397 kts | 246° |
| 2026-05-08 03:10 | 43.01733 | -68.89404 | 35068 ft | 400 kts | 246° |
| 2026-05-08 03:10 | 43.00667 | -68.92954 | 34559 ft | 399 kts | 245° |
| 2026-05-08 03:11 | 42.99607 | -68.96478 | 34020 ft | 400 kts | 245° |
| 2026-05-08 03:11 | 42.98502 | -69.00149 | 33149 ft | 404 kts | 246° |
| 2026-05-08 03:11 | 42.97488 | -69.03511 | 32289 ft | 407 kts | 246° |
| 2026-05-08 03:11 | 42.96375 | -69.07196 | 31384 ft | 410 kts | 246° |
| 2026-05-08 03:12 | 42.95234 | -69.10970 | 30557 ft | 410 kts | 246° |
| 2026-05-08 03:12 | 42.94138 | -69.14592 | 30060 ft | 403 kts | 246° |
| 2026-05-08 03:12 | 42.93018 | -69.18285 | 29570 ft | 396 kts | 246° |
| 2026-05-08 03:12 | 42.91945 | -69.21823 | 29050 ft | 391 kts | 246° |
| 2026-05-08 03:13 | 42.90896 | -69.25272 | 28511 ft | 386 kts | 246° |
| 2026-05-08 03:13 | 42.89850 | -69.28707 | 27952 ft | 381 kts | 246° |
| 2026-05-08 03:13 | 42.88820 | -69.32089 | 27448 ft | 376 kts | 246° |
| 2026-05-08 03:13 | 42.87824 | -69.35352 | 26938 ft | 371 kts | 246° |
| 2026-05-08 03:14 | 42.86831 | -69.38602 | 26416 ft | 367 kts | 245° |
| 2026-05-08 03:14 | 42.85845 | -69.41824 | 25868 ft | 363 kts | 246° |
| 2026-05-08 03:14 | 42.84888 | -69.44946 | 25358 ft | 359 kts | 245° |
| 2026-05-08 03:14 | 42.83928 | -69.48078 | 24827 ft | 356 kts | 245° |
| 2026-05-08 03:15 | 42.82955 | -69.51242 | 24316 ft | 366 kts | 245° |
| 2026-05-08 03:15 | 42.81968 | -69.54448 | 23750 ft | 369 kts | 245° |
| 2026-05-08 03:15 | 42.80980 | -69.57661 | 23176 ft | 367 kts | 245° |
| 2026-05-08 03:15 | 42.79977 | -69.60915 | 22657 ft | 363 kts | 245° |
| 2026-05-08 03:16 | 42.79007 | -69.64059 | 22087 ft | 359 kts | 245° |
| 2026-05-08 03:16 | 42.78033 | -69.67210 | 21525 ft | 356 kts | 245° |
| 2026-05-08 03:16 | 42.77049 | -69.70391 | 20988 ft | 352 kts | 245° |
| 2026-05-08 03:16 | 42.76091 | -69.73486 | 20424 ft | 349 kts | 245° |
| 2026-05-08 03:17 | 42.75144 | -69.76539 | 19878 ft | 346 kts | 245° |
| 2026-05-08 03:17 | 42.74208 | -69.79555 | 19334 ft | 343 kts | 245° |
| 2026-05-08 03:17 | 42.73286 | -69.82522 | 18787 ft | 340 kts | 245° |
| 2026-05-08 03:17 | 42.72356 | -69.85507 | 18283 ft | 336 kts | 245° |
| 2026-05-08 03:18 | 42.71447 | -69.88426 | 17816 ft | 332 kts | 245° |
| 2026-05-08 03:18 | 42.70546 | -69.91316 | 17328 ft | 329 kts | 246° |
| 2026-05-08 03:18 | 42.69665 | -69.94134 | 16821 ft | 327 kts | 246° |
| 2026-05-08 03:18 | 42.68773 | -69.96990 | 16289 ft | 331 kts | 246° |
| 2026-05-08 03:19 | 42.67846 | -69.99950 | 15762 ft | 342 kts | 247° |
| 2026-05-08 03:19 | 42.66913 | -70.02930 | 15204 ft | 344 kts | 247° |
| 2026-05-08 03:19 | 42.65968 | -70.05945 | 14650 ft | 343 kts | 247° |
| 2026-05-08 03:19 | 42.65030 | -70.08933 | 14290 ft | 336 kts | 248° |
| 2026-05-08 03:20 | 42.64080 | -70.11777 | 14189 ft | 321 kts | 246° |
| 2026-05-08 03:20 | 42.63144 | -70.14462 | 14081 ft | 306 kts | 246° |
| 2026-05-08 03:20 | 42.62246 | -70.17044 | 13937 ft | 290 kts | 246° |
| 2026-05-08 03:20 | 42.61411 | -70.19461 | 13827 ft | 276 kts | 246° |
| 2026-05-08 03:21 | 42.60583 | -70.21872 | 13691 ft | 269 kts | 248° |
| 2026-05-08 03:21 | 42.60115 | -70.24430 | 13511 ft | 271 kts | 263° |
| 2026-05-08 03:21 | 42.59955 | -70.27124 | 13045 ft | 275 kts | 266° |
| 2026-05-08 03:21 | 42.59839 | -70.29835 | 12607 ft | 275 kts | 266° |
| 2026-05-08 03:22 | 42.59719 | -70.32546 | 12179 ft | 275 kts | 266° |
| 2026-05-08 03:22 | 42.59597 | -70.35223 | 11775 ft | 274 kts | 266° |
| 2026-05-08 03:22 | 42.59475 | -70.37872 | 11387 ft | 273 kts | 266° |
| 2026-05-08 03:22 | 42.59353 | -70.40481 | 11005 ft | 272 kts | 267° |
| 2026-05-08 03:23 | 42.59230 | -70.43124 | 10598 ft | 271 kts | 266° |
| 2026-05-08 03:23 | 42.59107 | -70.45721 | 10232 ft | 270 kts | 267° |
| 2026-05-08 03:23 | 42.58985 | -70.48309 | 9898 ft | 266 kts | 267° |
| 2026-05-08 03:23 | 42.58865 | -70.50826 | 9687 ft | 261 kts | 267° |
| 2026-05-08 03:24 | 42.58749 | -70.53265 | 9307 ft | 259 kts | 267° |
| 2026-05-08 03:24 | 42.58631 | -70.55650 | 8942 ft | 256 kts | 265° |
| 2026-05-08 03:24 | 42.58263 | -70.58057 | 8586 ft | 253 kts | 256° |
| 2026-05-08 03:24 | 42.57757 | -70.60391 | 8273 ft | 251 kts | 255° |
| 2026-05-08 03:25 | 42.57253 | -70.62676 | 7903 ft | 246 kts | 256° |
| 2026-05-08 03:25 | 42.56770 | -70.64878 | 7597 ft | 239 kts | 256° |
| 2026-05-08 03:25 | 42.56295 | -70.67059 | 7208 ft | 232 kts | 257° |
| 2026-05-08 03:25 | 42.56173 | -70.69214 | 6985 ft | 226 kts | 278° |
| 2026-05-08 03:26 | 42.56680 | -70.71206 | 6774 ft | 225 kts | 300° |
| 2026-05-08 03:26 | 42.57570 | -70.72948 | 6592 ft | 229 kts | 304° |
| 2026-05-08 03:26 | 42.58532 | -70.74678 | 6379 ft | 226 kts | 306° |
| 2026-05-08 03:26 | 42.59551 | -70.76288 | 6162 ft | 221 kts | 319° |
| 2026-05-08 03:27 | 42.60894 | -70.77177 | 5996 ft | 217 kts | 346° |
| 2026-05-08 03:27 | 42.62458 | -70.77100 | 5992 ft | 224 kts | 9° |
| 2026-05-08 03:27 | 42.63975 | -70.76496 | 5916 ft | 222 kts | 14° |
| 2026-05-08 03:27 | 42.65408 | -70.75818 | 5536 ft | 224 kts | 15° |
| 2026-05-08 03:28 | 42.66889 | -70.75088 | 5261 ft | 222 kts | 16° |
| 2026-05-08 03:28 | 42.68356 | -70.74361 | 4982 ft | 220 kts | 16° |
| 2026-05-08 03:28 | 42.69796 | -70.73624 | 4697 ft | 219 kts | 17° |
| 2026-05-08 03:28 | 42.71258 | -70.73175 | 4325 ft | 210 kts | 353° |
| 2026-05-08 03:29 | 42.72603 | -70.73872 | 3884 ft | 206 kts | 320° |
| 2026-05-08 03:29 | 42.73356 | -70.75529 | 3426 ft | 206 kts | 285° |
| 2026-05-08 03:29 | 42.73212 | -70.77500 | 3024 ft | 211 kts | 249° |
| 2026-05-08 03:29 | 42.72337 | -70.79145 | 3002 ft | 218 kts | 236° |
| 2026-05-08 03:30 | 42.70427 | -70.82335 | 2999 ft | 215 kts | 234° |
| 2026-05-08 03:30 | 42.68015 | -70.84879 | 2981 ft | 222 kts | 213° |
| 2026-05-08 03:31 | 42.65167 | -70.86634 | 2991 ft | 224 kts | 206° |
| 2026-05-08 03:31 | 42.62291 | -70.88107 | 2993 ft | 226 kts | 204° |
| 2026-05-08 03:32 | 42.60828 | -70.88811 | 2990 ft | 227 kts | 204° |
| 2026-05-08 03:32 | 42.59326 | -70.89525 | 2987 ft | 228 kts | 203° |
| 2026-05-08 03:32 | 42.57839 | -70.90237 | 2991 ft | 228 kts | 204° |
| 2026-05-08 03:32 | 42.56341 | -70.90958 | 2992 ft | 228 kts | 204° |
| 2026-05-08 03:33 | 42.54875 | -70.91666 | 2994 ft | 228 kts | 204° |
| 2026-05-08 03:33 | 42.53390 | -70.92380 | 2986 ft | 216 kts | 204° |
| 2026-05-08 03:33 | 42.52039 | -70.93021 | 2985 ft | 201 kts | 204° |
| 2026-05-08 03:33 | 42.50706 | -70.93661 | 2814 ft | 201 kts | 204° |
| 2026-05-08 03:34 | 42.49427 | -70.94277 | 2563 ft | 197 kts | 205° |
| 2026-05-08 03:34 | 42.48181 | -70.94876 | 2302 ft | 189 kts | 206° |
| 2026-05-08 03:34 | 42.46963 | -70.95461 | 2052 ft | 176 kts | 206° |
| 2026-05-08 03:34 | 42.45860 | -70.95991 | 1829 ft | 169 kts | 207° |
| 2026-05-08 03:35 | 42.44730 | -70.96541 | 1600 ft | 167 kts | 206° |
| 2026-05-08 03:35 | 42.43662 | -70.97055 | 1386 ft | 165 kts | 206° |
| 2026-05-08 03:35 | 42.42714 | -70.97513 | 1181 ft | 163 kts | 205° |
| 2026-05-08 03:35 | 42.41703 | -70.98001 | 968 ft | 161 kts | 205° |
| 2026-05-08 03:36 | 42.40666 | -70.98500 | 747 ft | 159 kts | 205° |
| 2026-05-08 03:36 | 42.39647 | -70.98991 | 515 ft | 156 kts | 204° |
| 2026-05-08 03:36 | 42.38647 | -70.99468 | 310 ft | 152 kts | 204° |
| 2026-05-08 03:36 | 42.37690 | -70.99933 | 109 ft | 148 kts | 204° |
| 2026-05-08 03:37 | 42.36736 | -71.00396 | 19 ft | 130 kts | 200° |
| 2026-05-08 03:37 | 42.36028 | -71.00736 | 22 ft | 86 kts | 199° |
| 2026-05-08 03:37 | 42.35609 | -71.00936 | 25 ft | 42 kts | 200° |
| 2026-05-08 03:37 | 42.35418 | -71.01030 | 26 ft | 15 kts | 201° |
| 2026-05-08 03:38 | 42.35390 | -71.01126 | 28 ft | 12 kts | 282° |
| 2026-05-08 03:38 | 42.35411 | -71.01215 | 28 ft | 7 kts | 290° |
| 2026-05-08 03:38 | 42.35428 | -71.01278 | 28 ft | 7 kts | 290° |
| 2026-05-08 03:38 | 42.35444 | -71.01334 | 28 ft | 6 kts | 298° |
| 2026-05-08 03:39 | 42.35486 | -71.01356 | 28 ft | 8 kts | 7° |
| 2026-05-08 03:39 | 42.35557 | -71.01329 | 28 ft | 13 kts | 16° |
| 2026-05-08 03:39 | 42.35645 | -71.01307 | 28 ft | 13 kts | 13° |
| 2026-05-08 03:39 | 42.35729 | -71.01267 | 28 ft | 12 kts | 20° |
| 2026-05-08 03:40 | 42.35804 | -71.01232 | 27 ft | 11 kts | 19° |
| 2026-05-08 03:40 | 42.35896 | -71.01189 | 25 ft | 15 kts | 19° |
| 2026-05-08 03:40 | 42.35989 | -71.01144 | 25 ft | 14 kts | 20° |
| 2026-05-08 03:40 | 42.36076 | -71.01101 | 25 ft | 13 kts | 20° |
| 2026-05-08 03:41 | 42.36161 | -71.01060 | 25 ft | 12 kts | 18° |
| 2026-05-08 03:41 | 42.36234 | -71.01078 | 25 ft | 11 kts | 313° |
| 2026-05-08 03:41 | 42.36269 | -71.01164 | 25 ft | 11 kts | 301° |
| 2026-05-08 03:41 | 42.36306 | -71.01246 | 25 ft | 10 kts | 301° |
| 2026-05-08 03:42 | 42.36346 | -71.01308 | 25 ft | 9 kts | 339° |
| 2026-05-08 03:42 | 42.36407 | -71.01295 | 25 ft | 9 kts | 20° |
| 2026-05-08 03:42 | 42.36484 | -71.01257 | 25 ft | 14 kts | 20° |
| 2026-05-08 03:42 | 42.36579 | -71.01212 | 23 ft | 15 kts | 19° |
| 2026-05-08 03:43 | 42.36678 | -71.01166 | 22 ft | 15 kts | 19° |
| 2026-05-08 03:43 | 42.36774 | -71.01144 | 22 ft | 14 kts | 345° |
| 2026-05-08 03:43 | 42.36845 | -71.01215 | 22 ft | 13 kts | 316° |
| 2026-05-08 03:43 | 42.36903 | -71.01293 | 22 ft | 12 kts | 315° |
| 2026-05-08 03:44 | 42.36963 | -71.01373 | 22 ft | 14 kts | 315° |
| 2026-05-08 03:44 | 42.37035 | -71.01471 | 21 ft | 17 kts | 316° |
| 2026-05-08 03:44 | 42.37122 | -71.01587 | 21 ft | 20 kts | 314° |
| 2026-05-08 03:44 | 42.37217 | -71.01714 | 22 ft | 19 kts | 316° |
| 2026-05-08 03:45 | 42.37294 | -71.01823 | 22 ft | 14 kts | 300° |
| 2026-05-08 03:45 | 42.37263 | -71.01917 | 22 ft | 12 kts | 225° |
| 2026-05-08 03:45 | 42.37233 | -71.02004 | 22 ft | 11 kts | 273° |
| 2026-05-08 03:45 | 42.37241 | -71.02100 | 22 ft | 10 kts | 269° |
| 2026-05-08 03:46 | 42.37206 | -71.02174 | 22 ft | 10 kts | 221° |
| 2026-05-08 03:46 | 42.37159 | -71.02230 | 22 ft | 9 kts | 222° |
| 2026-05-08 03:46 | 42.37134 | -71.02309 | 22 ft | 12 kts | 276° |
| 2026-05-08 03:46 | 42.37190 | -71.02400 | 22 ft | 13 kts | 315° |
| 2026-05-08 03:47 | 42.37244 | -71.02485 | 22 ft | 12 kts | 308° |
| 2026-05-08 03:47 | 42.37264 | -71.02543 | 22 ft | 6 kts | 261° |
| 2026-05-08 03:47 | 42.37247 | -71.02579 | 22 ft | 2 kts | 221° |
| 2026-05-08 03:47 | 42.37239 | -71.02588 | 22 ft | 0 kts | 220° |
| 2026-05-08 03:48 | 42.37237 | -71.02589 | 22 ft | 0 kts | 220° |
| 2026-05-08 03:48 | 42.37237 | -71.02590 | 22 ft | 0 kts | 220° |